createdAt,value
2023-03-23T15:58:56.429Z,1.40
2023-03-23T16:04:19.514Z,1.57
2023-03-23T16:06:51.337Z,1.90
2023-03-23T16:09:22.258Z,1.40
2023-03-23T16:11:52.113Z,1.87
2023-03-23T16:14:21.801Z,1.90
2023-03-23T16:16:55.077Z,1.70
2023-03-23T16:19:24.907Z,1.97
2023-03-23T16:21:54.745Z,2.13
2023-03-23T16:24:26.455Z,1.50
2023-03-23T16:26:56.366Z,1.73
2023-03-23T16:29:46.721Z,1.53
2023-03-23T16:31:57.507Z,1.60
2023-03-23T16:34:28.932Z,1.32
2023-03-23T16:37:03.040Z,1.70
2023-03-23T16:39:32.936Z,1.40
2023-03-23T16:42:02.821Z,1.70
2023-03-23T16:44:32.904Z,1.95
2023-03-23T16:47:02.829Z,1.53
2023-03-23T16:49:32.644Z,2.10
2023-03-23T16:52:02.637Z,2.30
2023-03-23T16:54:32.156Z,1.50
2023-03-23T16:57:02.002Z,1.60
2023-03-23T16:59:31.865Z,1.93
2023-03-23T17:02:03.173Z,2.05
2023-03-23T17:04:34.362Z,2.13
2023-03-23T17:07:04.749Z,2.00
2023-03-23T17:09:35.370Z,2.23
2023-03-23T17:12:07.191Z,1.67
2023-03-23T17:14:37.070Z,1.87
2023-03-23T17:17:06.933Z,3.13
2023-03-23T17:19:37.254Z,1.82
2023-03-23T17:22:07.414Z,2.23
2023-03-23T17:24:37.226Z,2.10
2023-03-23T17:27:07.160Z,2.97
2023-03-23T17:29:36.956Z,2.43
2023-03-23T17:32:06.893Z,3.10
2023-03-23T17:34:36.797Z,2.97
2023-03-23T17:37:06.884Z,2.73
2023-03-23T17:39:42.518Z,2.27
2023-03-23T17:42:10.366Z,2.83
2023-03-23T17:44:40.249Z,2.17
2023-03-23T17:47:10.494Z,2.90
2023-03-23T17:49:40.373Z,2.37
2023-03-23T17:52:10.553Z,3.30
2023-03-23T17:54:40.400Z,2.73
2023-03-23T17:57:10.391Z,2.87
2023-03-23T17:59:40.430Z,3.10
2023-03-23T18:02:11.363Z,2.83
2023-03-23T18:04:42.885Z,3.30
2023-03-23T18:07:13.190Z,3.33
2023-03-23T18:09:45.293Z,3.37
2023-03-23T18:12:14.881Z,3.00
2023-03-23T18:14:44.793Z,3.17
2023-03-23T18:17:14.598Z,3.77
2023-03-23T18:19:46.527Z,3.50
2023-03-23T18:22:16.187Z,3.63
2023-03-23T18:24:46.157Z,3.87
2023-03-23T18:27:17.157Z,3.30
2023-03-23T18:29:47.342Z,2.98
2023-03-23T18:32:17.425Z,2.67
2023-03-23T18:34:47.438Z,3.23
2023-03-23T18:37:17.836Z,3.20
2023-03-23T18:39:47.654Z,3.43
2023-03-23T18:42:17.534Z,3.77
2023-03-23T18:44:47.490Z,2.90
2023-03-23T18:47:17.424Z,3.23
2023-03-23T18:49:48.903Z,2.90
2023-03-23T18:52:19.388Z,3.73
2023-03-23T18:54:49.389Z,3.47
2023-03-23T18:57:21.232Z,3.07
2023-03-23T18:59:51.648Z,2.95
2023-03-23T19:02:22.136Z,3.77
2023-03-23T19:04:52.083Z,3.33
2023-03-23T19:07:22.069Z,3.70
2023-03-23T19:09:51.920Z,3.13
2023-03-23T19:12:22.276Z,3.83
2023-03-23T19:14:52.571Z,3.30
2023-03-23T19:17:23.374Z,3.60
2023-03-23T19:19:53.523Z,3.67
2023-03-23T19:22:23.107Z,2.93
2023-03-23T19:24:52.915Z,3.20
2023-03-23T19:27:22.800Z,2.90
2023-03-23T19:29:52.751Z,2.40
2023-03-23T19:32:22.557Z,2.80
2023-03-23T19:34:52.528Z,2.93
2023-03-23T19:37:23.209Z,2.10
2023-03-23T19:39:53.134Z,2.50
2023-03-23T19:42:23.034Z,2.93
2023-03-23T19:44:52.881Z,2.60
2023-03-23T19:47:22.755Z,2.47
2023-03-23T19:49:52.642Z,3.13
2023-03-23T19:52:22.660Z,2.93
2023-03-23T19:54:53.255Z,2.60
2023-03-23T19:57:23.352Z,2.50
2023-03-23T20:02:23.261Z,2.50
2023-03-23T20:04:52.919Z,2.65
2023-03-23T20:07:25.575Z,2.73
2023-03-23T20:09:54.241Z,2.20
2023-03-23T20:12:24.168Z,3.70
2023-03-23T20:14:53.975Z,2.67
2023-03-23T20:17:23.876Z,2.80
2023-03-23T20:19:54.030Z,2.47
2023-03-23T20:22:23.593Z,3.07
2023-03-23T20:24:53.412Z,2.93
2023-03-23T20:27:23.592Z,2.50
2023-03-23T20:29:55.382Z,3.10
2023-03-23T20:32:25.289Z,2.17
2023-03-23T20:34:56.988Z,2.87
2023-03-23T20:37:26.972Z,2.70
2023-03-23T20:39:57.166Z,2.10
2023-03-23T20:42:28.314Z,2.63
2023-03-23T20:44:58.150Z,4.00
2023-03-23T20:47:28.220Z,3.07
2023-03-23T20:49:58.605Z,3.03
2023-03-23T20:52:28.495Z,3.00
2023-03-23T20:54:58.748Z,3.12
2023-03-23T20:57:28.844Z,3.00
2023-03-23T20:59:58.676Z,3.27
2023-03-23T21:02:29.589Z,2.77
2023-03-23T21:05:01.181Z,3.30
2023-03-23T21:07:30.999Z,3.30
2023-03-23T21:10:01.136Z,3.27
2023-03-23T21:12:31.882Z,3.00
2023-03-23T21:15:01.724Z,3.50
2023-03-23T21:17:31.286Z,2.90
2023-03-23T21:20:03.495Z,3.15
2023-03-23T21:22:33.146Z,3.65
2023-03-23T21:25:02.941Z,3.50
2023-03-23T21:27:32.767Z,3.20
2023-03-23T21:30:02.997Z,3.07
2023-03-23T21:32:32.864Z,3.00
2023-03-23T21:35:02.862Z,3.80
2023-03-23T21:37:33.222Z,3.13
2023-03-23T21:40:03.698Z,3.40
2023-03-23T21:42:34.033Z,2.95
2023-03-23T21:45:03.972Z,3.07
2023-03-23T21:47:34.005Z,2.70
2023-03-23T21:50:04.837Z,3.23
2023-03-23T21:52:35.972Z,3.50
2023-03-23T21:55:07.950Z,2.90
2023-03-23T21:57:37.828Z,3.10
2023-03-23T22:00:11.583Z,2.40
2023-03-23T22:02:41.925Z,2.70
2023-03-23T22:05:11.825Z,2.63
2023-03-23T22:07:43.510Z,2.70
2023-03-23T22:10:14.507Z,2.47
2023-03-23T22:12:44.321Z,2.80
2023-03-23T22:15:15.636Z,2.60
2023-03-23T22:17:45.536Z,2.53
2023-03-23T22:20:17.573Z,2.76
2023-03-23T22:22:47.332Z,2.50
2023-03-23T22:25:17.347Z,2.50
2023-03-23T22:27:47.439Z,2.57
2023-03-23T22:30:17.689Z,2.40
2023-03-23T22:32:47.606Z,2.70
2023-03-23T22:35:18.020Z,2.52
2023-03-23T22:37:48.200Z,2.60
2023-03-23T22:40:19.408Z,2.05
2023-03-23T22:42:49.316Z,2.37
2023-03-23T22:45:19.528Z,2.08
2023-03-23T22:47:49.445Z,2.50
2023-03-23T22:50:20.967Z,2.40
2023-03-23T22:52:50.901Z,2.17
2023-03-23T22:55:21.228Z,2.33
2023-03-23T22:57:51.010Z,2.17
2023-03-23T23:00:20.964Z,2.58
2023-03-23T23:02:50.877Z,2.53
2023-03-23T23:05:20.910Z,2.53
2023-03-23T23:07:50.708Z,2.40
2023-03-23T23:10:20.819Z,2.40
2023-03-23T23:12:52.257Z,2.40
2023-03-23T23:15:22.234Z,2.53
2023-03-23T23:17:52.007Z,2.67
2023-03-23T23:20:23.461Z,2.98
2023-03-23T23:22:53.620Z,2.20
2023-03-23T23:25:23.609Z,2.70
2023-03-23T23:27:53.608Z,2.53
2023-03-23T23:30:23.406Z,2.73
2023-03-23T23:32:54.119Z,2.50
2023-03-23T23:35:24.374Z,2.15
2023-03-23T23:37:54.990Z,2.57
2023-03-23T23:40:24.832Z,2.53
2023-03-23T23:42:54.631Z,2.60
2023-03-23T23:45:24.607Z,2.40
2023-03-23T23:47:54.610Z,2.37
2023-03-23T23:50:24.788Z,2.77
2023-03-23T23:52:55.128Z,2.10
2023-03-23T23:55:25.412Z,2.57
2023-03-23T23:57:55.929Z,2.40
